sensor_id;sensor_type;location;lat;lon;timestamp;temperature;humidity
11047;DHT22;5576;50.008;10.596;2023-03-01T00:02:00;-0.80;99.90
11047;DHT22;5576;50.008;10.596;2023-03-01T00:04:27;1.00;99.90
11047;DHT22;5576;50.008;10.596;2023-03-01T00:06:53;1.10;99.90
11047;DHT22;5576;50.008;10.596;2023-03-01T00:09:19;-0.40;99.90
11047;DHT22;5576;50.008;10.596;2023-03-01T00:11:46;1.00;99.90
11047;DHT22;5576;50.008;10.596;2023-03-01T00:14:12;1.10;99.90
11047;DHT22;5576;50.008;10.596;2023-03-01T00:16:40;4.10;99.90
11047;DHT22;5576;50.008;10.596;2023-03-01T00:19:08;1.00;99.90
11047;DHT22;5576;50.008;10.596;2023-03-01T00:21:35;1.10;99.90
11047;DHT22;5576;50.008;10.596;2023-03-01T00:24:02;-0.60;99.90
11047;DHT22;5576;50.008;10.596;2023-03-01T00:26:28;1.10;99.90
11047;DHT22;5576;50.008;10.596;2023-03-01T00:28:54;1.00;99.90
11047;DHT22;5576;50.008;10.596;2023-03-01T00:31:24;0.90;99.90
11047;DHT22;5576;50.008;10.596;2023-03-01T00:33:53;0.90;99.90
11047;DHT22;5576;50.008;10.596;2023-03-01T00:36:24;0.80;99.90
11047;DHT22;5576;50.008;10.596;2023-03-01T00:38:50;-0.80;99.90
11047;DHT22;5576;50.008;10.596;2023-03-01T00:41:18;0.60;99.90
11047;DHT22;5576;50.008;10.596;2023-03-01T00:43:44;-2.60;99.90
11047;DHT22;5576;50.008;10.596;2023-03-01T00:46:13;2.50;99.90
11047;DHT22;5576;50.008;10.596;2023-03-01T00:48:39;3.90;99.90
11047;DHT22;5576;50.008;10.596;2023-03-01T00:53:33;2.90;99.90
11047;DHT22;5576;50.008;10.596;2023-03-01T00:55:59;0.30;99.90
11047;DHT22;5576;50.008;10.596;2023-03-01T00:58:26;0.40;99.90
11047;DHT22;5576;50.008;10.596;2023-03-01T01:00:51;0.20;99.90
11047;DHT22;5576;50.008;10.596;2023-03-01T01:03:18;0.20;99.90
11047;DHT22;5576;50.008;10.596;2023-03-01T01:05:44;2.00;99.90
11047;DHT22;5576;50.008;10.596;2023-03-01T01:08:10;4.30;99.90
11047;DHT22;5576;50.008;10.596;2023-03-01T01:10:36;4.50;99.90
11047;DHT22;5576;50.008;10.596;2023-03-01T01:13:03;0.60;99.90
11047;DHT22;5576;50.008;10.596;2023-03-01T01:15:31;0.50;99.90
11047;DHT22;5576;50.008;10.596;2023-03-01T01:17:58;0.40;99.90
11047;DHT22;5576;50.008;10.596;2023-03-01T01:20:24;0.40;99.90
11047;DHT22;5576;50.008;10.596;2023-03-01T01:22:50;0.50;99.90
11047;DHT22;5576;50.008;10.596;2023-03-01T01:25:17;4.30;99.90
11047;DHT22;5576;50.008;10.596;2023-03-01T01:27:42;0.70;99.90
11047;DHT22;5576;50.008;10.596;2023-03-01T01:30:09;0.70;99.90
11047;DHT22;5576;50.008;10.596;2023-03-01T01:32:35;0.60;99.90
11047;DHT22;5576;50.008;10.596;2023-03-01T01:35:01;0.70;99.90
11047;DHT22;5576;50.008;10.596;2023-03-01T01:37:26;2.30;99.90
11047;DHT22;5576;50.008;10.596;2023-03-01T01:39:58;0.70;99.90
11047;DHT22;5576;50.008;10.596;2023-03-01T01:42:25;0.90;99.90
11047;DHT22;5576;50.008;10.596;2023-03-01T01:45:28;0.50;99.90
11047;DHT22;5576;50.008;10.596;2023-03-01T01:47:59;0.40;99.90
11047;DHT22;5576;50.008;10.596;2023-03-01T01:50:25;0.40;99.90
11047;DHT22;5576;50.008;10.596;2023-03-01T01:52:53;0.40;99.90
11047;DHT22;5576;50.008;10.596;2023-03-01T01:55:24;0.20;99.90
11047;DHT22;5576;50.008;10.596;2023-03-01T01:57:56;3.90;99.90
11047;DHT22;5576;50.008;10.596;2023-03-01T02:00:26;-0.60;99.90
11047;DHT22;5576;50.008;10.596;2023-03-01T02:02:57;0.20;99.90
11047;DHT22;5576;50.008;10.596;2023-03-01T02:05:47;0.10;99.90
11047;DHT22;5576;50.008;10.596;2023-03-01T02:08:18;0.20;99.90
11047;DHT22;5576;50.008;10.596;2023-03-01T02:10:45;0.10;99.90
11047;DHT22;5576;50.008;10.596;2023-03-01T02:13:12;-1.90;99.90
11047;DHT22;5576;50.008;10.596;2023-03-01T02:15:39;0.30;99.90
11047;DHT22;5576;50.008;10.596;2023-03-01T02:18:07;0.20;99.90
11047;DHT22;5576;50.008;10.596;2023-03-01T02:20:40;0.10;99.90
11047;DHT22;5576;50.008;10.596;2023-03-01T02:23:11;0.10;99.90
11047;DHT22;5576;50.008;10.596;2023-03-01T02:25:46;0.20;99.90
11047;DHT22;5576;50.008;10.596;2023-03-01T02:30:45;-1.90;99.90
11047;DHT22;5576;50.008;10.596;2023-03-01T02:33:34;0.20;99.90
11047;DHT22;5576;50.008;10.596;2023-03-01T02:36:05;0.10;99.90
11047;DHT22;5576;50.008;10.596;2023-03-01T02:38:32;0.00;99.90
11047;DHT22;5576;50.008;10.596;2023-03-01T02:40:58;2.90;99.90
11047;DHT22;5576;50.008;10.596;2023-03-01T02:43:29;-2.30;99.90
11047;DHT22;5576;50.008;10.596;2023-03-01T02:45:59;0.10;99.90
11047;DHT22;5576;50.008;10.596;2023-03-01T02:48:27;0.10;99.90
11047;DHT22;5576;50.008;10.596;2023-03-01T02:56:15;0.00;99.90
11047;DHT22;5576;50.008;10.596;2023-03-01T02:58:43;0.00;99.90
11047;DHT22;5576;50.008;10.596;2023-03-01T03:01:14;0.30;99.90
11047;DHT22;5576;50.008;10.596;2023-03-01T03:03:41;3.30;99.90
11047;DHT22;5576;50.008;10.596;2023-03-01T03:06:07;-3.20;99.90
11047;DHT22;5576;50.008;10.596;2023-03-01T03:08:33;-2.80;99.90
11047;DHT22;5576;50.008;10.596;2023-03-01T03:10:59;0.40;99.90
11047;DHT22;5576;50.008;10.596;2023-03-01T03:13:25;3.90;99.90
11047;DHT22;5576;50.008;10.596;2023-03-01T03:15:55;1.70;99.90
11047;DHT22;5576;50.008;10.596;2023-03-01T03:18:22;0.30;99.90
11047;DHT22;5576;50.008;10.596;2023-03-01T03:20:48;0.20;99.90
11047;DHT22;5576;50.008;10.596;2023-03-01T03:23:19;0.00;99.90
11047;DHT22;5576;50.008;10.596;2023-03-01T03:25:48;-1.80;99.90
11047;DHT22;5576;50.008;10.596;2023-03-01T03:28:14;0.00;99.90
11047;DHT22;5576;50.008;10.596;2023-03-01T03:30:42;-0.30;99.90
11047;DHT22;5576;50.008;10.596;2023-03-01T03:33:09;-0.30;99.90
11047;DHT22;5576;50.008;10.596;2023-03-01T03:35:42;-0.10;99.90
11047;DHT22;5576;50.008;10.596;2023-03-01T03:38:10;3.00;99.90
11047;DHT22;5576;50.008;10.596;2023-03-01T03:40:46;-0.20;99.90
11047;DHT22;5576;50.008;10.596;2023-03-01T03:43:17;-3.20;99.90
11047;DHT22;5576;50.008;10.596;2023-03-01T03:45:44;-3.40;99.90
11047;DHT22;5576;50.008;10.596;2023-03-01T03:48:11;0.30;99.90
11047;DHT22;5576;50.008;10.596;2023-03-01T03:50:39;0.70;99.90
11047;DHT22;5576;50.008;10.596;2023-03-01T03:53:11;-0.30;99.90
11047;DHT22;5576;50.008;10.596;2023-03-01T03:55:37;-3.00;99.90
11047;DHT22;5576;50.008;10.596;2023-03-01T03:58:06;-0.50;99.90
11047;DHT22;5576;50.008;10.596;2023-03-01T04:00:36;3.60;99.90
11047;DHT22;5576;50.008;10.596;2023-03-01T04:03:02;1.90;99.90
11047;DHT22;5576;50.008;10.596;2023-03-01T04:05:29;-0.50;99.90
11047;DHT22;5576;50.008;10.596;2023-03-01T04:07:55;-0.60;99.90
11047;DHT22;5576;50.008;10.596;2023-03-01T04:10:31;-0.70;99.90
11047;DHT22;5576;50.008;10.596;2023-03-01T04:12:57;-0.70;99.90
11047;DHT22;5576;50.008;10.596;2023-03-01T04:15:24;-0.70;99.90
11047;DHT22;5576;50.008;10.596;2023-03-01T04:17:51;2.30;99.90
11047;DHT22;5576;50.008;10.596;2023-03-01T04:20:23;-0.60;99.90
11047;DHT22;5576;50.008;10.596;2023-03-01T04:22:52;-0.40;99.90
11047;DHT22;5576;50.008;10.596;2023-03-01T04:25:19;1.80;99.90
11047;DHT22;5576;50.008;10.596;2023-03-01T04:27:45;-0.30;99.90
11047;DHT22;5576;50.008;10.596;2023-03-01T04:30:11;-0.40;99.90
11047;DHT22;5576;50.008;10.596;2023-03-01T04:32:36;-0.60;99.90
11047;DHT22;5576;50.008;10.596;2023-03-01T04:35:02;-0.70;99.90
11047;DHT22;5576;50.008;10.596;2023-03-01T04:37:28;3.20;99.90
11047;DHT22;5576;50.008;10.596;2023-03-01T04:39:55;-0.70;99.90
11047;DHT22;5576;50.008;10.596;2023-03-01T04:42:21;-0.60;99.90
11047;DHT22;5576;50.008;10.596;2023-03-01T04:44:46;-0.50;99.90
11047;DHT22;5576;50.008;10.596;2023-03-01T04:47:12;-0.30;99.90
11047;DHT22;5576;50.008;10.596;2023-03-01T04:49:38;-0.20;99.90
11047;DHT22;5576;50.008;10.596;2023-03-01T04:52:04;0.00;99.90
11047;DHT22;5576;50.008;10.596;2023-03-01T04:54:32;3.70;99.90
11047;DHT22;5576;50.008;10.596;2023-03-01T04:56:58;-0.20;99.90
11047;DHT22;5576;50.008;10.596;2023-03-01T04:59:24;4.20;99.90
11047;DHT22;5576;50.008;10.596;2023-03-01T05:01:52;-0.30;99.90
11047;DHT22;5576;50.008;10.596;2023-03-01T05:04:18;-0.30;99.90
11047;DHT22;5576;50.008;10.596;2023-03-01T05:06:43;-2.50;99.90
11047;DHT22;5576;50.008;10.596;2023-03-01T05:09:10;3.90;99.90
11047;DHT22;5576;50.008;10.596;2023-03-01T05:11:37;-1.60;99.90
11047;DHT22;5576;50.008;10.596;2023-03-01T05:14:04;-0.60;99.90
11047;DHT22;5576;50.008;10.596;2023-03-01T05:16:30;-0.80;99.90
11047;DHT22;5576;50.008;10.596;2023-03-01T05:18:57;1.80;99.90
11047;DHT22;5576;50.008;10.596;2023-03-01T05:21:23;-0.90;99.90
11047;DHT22;5576;50.008;10.596;2023-03-01T05:23:49;-1.00;99.90
11047;DHT22;5576;50.008;10.596;2023-03-01T05:26:17;1.20;99.90
11047;DHT22;5576;50.008;10.596;2023-03-01T05:28:44;-1.10;99.90
11047;DHT22;5576;50.008;10.596;2023-03-01T05:31:10;-0.90;99.90
11047;DHT22;5576;50.008;10.596;2023-03-01T05:33:38;2.20;99.90
11047;DHT22;5576;50.008;10.596;2023-03-01T05:36:05;-0.60;99.90
11047;DHT22;5576;50.008;10.596;2023-03-01T05:38:31;-0.50;99.90
11047;DHT22;5576;50.008;10.596;2023-03-01T05:40:57;-0.50;99.90
11047;DHT22;5576;50.008;10.596;2023-03-01T05:43:23;-0.50;99.90
11047;DHT22;5576;50.008;10.596;2023-03-01T05:45:48;0.80;99.90
11047;DHT22;5576;50.008;10.596;2023-03-01T05:48:14;-1.60;99.90
11047;DHT22;5576;50.008;10.596;2023-03-01T05:50:42;-0.70;99.90
11047;DHT22;5576;50.008;10.596;2023-03-01T05:53:18;2.40;99.90
11047;DHT22;5576;50.008;10.596;2023-03-01T05:55:45;-0.80;99.90
11047;DHT22;5576;50.008;10.596;2023-03-01T05:58:15;-0.70;99.90
11047;DHT22;5576;50.008;10.596;2023-03-01T06:00:42;-0.60;99.90
11047;DHT22;5576;50.008;10.596;2023-03-01T06:03:10;-0.50;99.90
11047;DHT22;5576;50.008;10.596;2023-03-01T06:05:37;2.80;99.90
11047;DHT22;5576;50.008;10.596;2023-03-01T06:08:02;-5.20;99.90
11047;DHT22;5576;50.008;10.596;2023-03-01T06:10:28;-0.70;99.90
11047;DHT22;5576;50.008;10.596;2023-03-01T06:12:55;3.20;99.90
11047;DHT22;5576;50.008;10.596;2023-03-01T06:15:21;-0.90;99.90
11047;DHT22;5576;50.008;10.596;2023-03-01T06:17:47;-0.80;99.90
11047;DHT22;5576;50.008;10.596;2023-03-01T06:20:20;2.80;99.90
11047;DHT22;5576;50.008;10.596;2023-03-01T06:22:46;-0.30;99.90
11047;DHT22;5576;50.008;10.596;2023-03-01T06:25:14;-0.30;99.90
11047;DHT22;5576;50.008;10.596;2023-03-01T06:27:41;-0.40;99.90
11047;DHT22;5576;50.008;10.596;2023-03-01T06:30:08;-0.30;99.90
11047;DHT22;5576;50.008;10.596;2023-03-01T06:32:36;-0.40;99.90
11047;DHT22;5576;50.008;10.596;2023-03-01T06:35:03;-4.20;99.90
11047;DHT22;5576;50.008;10.596;2023-03-01T06:37:29;-2.30;99.90
11047;DHT22;5576;50.008;10.596;2023-03-01T06:39:55;-0.60;99.90
11047;DHT22;5576;50.008;10.596;2023-03-01T06:42:21;-0.40;99.90
11047;DHT22;5576;50.008;10.596;2023-03-01T06:44:47;-2.40;99.90
11047;DHT22;5576;50.008;10.596;2023-03-01T06:47:12;-0.30;99.90
11047;DHT22;5576;50.008;10.596;2023-03-01T06:49:38;4.00;99.90
11047;DHT22;5576;50.008;10.596;2023-03-01T06:52:04;-0.40;99.90
11047;DHT22;5576;50.008;10.596;2023-03-01T06:54:30;-0.30;99.90
11047;DHT22;5576;50.008;10.596;2023-03-01T06:56:55;0.30;99.90
11047;DHT22;5576;50.008;10.596;2023-03-01T06:59:21;-0.20;99.90
11047;DHT22;5576;50.008;10.596;2023-03-01T07:01:47;-0.10;99.90
11047;DHT22;5576;50.008;10.596;2023-03-01T07:04:13;-1.70;99.90
11047;DHT22;5576;50.008;10.596;2023-03-01T07:06:39;-0.20;99.90
11047;DHT22;5576;50.008;10.596;2023-03-01T07:09:05;-0.20;99.90
11047;DHT22;5576;50.008;10.596;2023-03-01T07:11:31;1.30;99.90
11047;DHT22;5576;50.008;10.596;2023-03-01T07:13:56;-0.10;99.90
11047;DHT22;5576;50.008;10.596;2023-03-01T07:16:23;-0.10;99.90
11047;DHT22;5576;50.008;10.596;2023-03-01T07:18:49;0.00;99.90
11047;DHT22;5576;50.008;10.596;2023-03-01T07:21:15;0.10;99.90
11047;DHT22;5576;50.008;10.596;2023-03-01T07:23:42;4.80;99.90
11047;DHT22;5576;50.008;10.596;2023-03-01T07:26:08;1.90;99.90
11047;DHT22;5576;50.008;10.596;2023-03-01T07:28:33;0.60;99.90
11047;DHT22;5576;50.008;10.596;2023-03-01T07:31:05;4.40;99.90
11047;DHT22;5576;50.008;10.596;2023-03-01T07:33:31;4.20;99.90
11047;DHT22;5576;50.008;10.596;2023-03-01T07:35:58;0.80;99.90
11047;DHT22;5576;50.008;10.596;2023-03-01T07:38:25;4.10;99.90
11047;DHT22;5576;50.008;10.596;2023-03-01T07:40:51;1.30;99.90
11047;DHT22;5576;50.008;10.596;2023-03-01T07:43:17;0.80;99.90
11047;DHT22;5576;50.008;10.596;2023-03-01T07:45:43;0.90;99.90
11047;DHT22;5576;50.008;10.596;2023-03-01T07:48:09;0.80;99.90
11047;DHT22;5576;50.008;10.596;2023-03-01T07:50:35;0.90;99.90
11047;DHT22;5576;50.008;10.596;2023-03-01T07:53:00;-0.30;99.90
11047;DHT22;5576;50.008;10.596;2023-03-01T07:55:26;1.00;99.90
11047;DHT22;5576;50.008;10.596;2023-03-01T07:57:52;1.10;99.90
11047;DHT22;5576;50.008;10.596;2023-03-01T08:00:18;1.00;99.90
11047;DHT22;5576;50.008;10.596;2023-03-01T08:02:44;0.00;99.90
11047;DHT22;5576;50.008;10.596;2023-03-01T08:05:10;1.40;99.90
11047;DHT22;5576;50.008;10.596;2023-03-01T08:07:36;1.30;99.90
11047;DHT22;5576;50.008;10.596;2023-03-01T08:10:03;1.30;99.90
11047;DHT22;5576;50.008;10.596;2023-03-01T08:12:28;1.30;99.90
11047;DHT22;5576;50.008;10.596;2023-03-01T08:14:55;1.30;99.90
11047;DHT22;5576;50.008;10.596;2023-03-01T08:17:21;1.30;99.90
11047;DHT22;5576;50.008;10.596;2023-03-01T08:19:46;3.10;99.90
11047;DHT22;5576;50.008;10.596;2023-03-01T08:22:12;1.60;99.90
11047;DHT22;5576;50.008;10.596;2023-03-01T08:24:38;1.60;99.90
11047;DHT22;5576;50.008;10.596;2023-03-01T08:27:04;4.30;99.90
11047;DHT22;5576;50.008;10.596;2023-03-01T08:29:31;2.10;99.90
11047;DHT22;5576;50.008;10.596;2023-03-01T08:31:57;1.60;99.90
11047;DHT22;5576;50.008;10.596;2023-03-01T08:34:23;0.90;99.90
11047;DHT22;5576;50.008;10.596;2023-03-01T08:36:49;-0.70;99.90
11047;DHT22;5576;50.008;10.596;2023-03-01T08:39:17;1.70;99.90
11047;DHT22;5576;50.008;10.596;2023-03-01T08:41:43;1.80;99.90
11047;DHT22;5576;50.008;10.596;2023-03-01T08:44:11;1.80;99.90
11047;DHT22;5576;50.008;10.596;2023-03-01T08:46:39;1.90;99.90
11047;DHT22;5576;50.008;10.596;2023-03-01T08:49:07;1.90;99.90
11047;DHT22;5576;50.008;10.596;2023-03-01T08:51:34;-0.30;99.90
11047;DHT22;5576;50.008;10.596;2023-03-01T08:54:03;1.90;99.90
11047;DHT22;5576;50.008;10.596;2023-03-01T08:56:30;6.40;99.90
11047;DHT22;5576;50.008;10.596;2023-03-01T08:58:56;6.20;99.90
11047;DHT22;5576;50.008;10.596;2023-03-01T09:01:21;2.20;99.90
11047;DHT22;5576;50.008;10.596;2023-03-01T09:03:47;2.30;99.90
11047;DHT22;5576;50.008;10.596;2023-03-01T09:06:14;2.50;99.90
11047;DHT22;5576;50.008;10.596;2023-03-01T09:08:43;2.40;99.90
11047;DHT22;5576;50.008;10.596;2023-03-01T09:11:11;6.80;99.90
11047;DHT22;5576;50.008;10.596;2023-03-01T09:13:37;2.60;99.90
11047;DHT22;5576;50.008;10.596;2023-03-01T09:16:04;2.70;99.90
11047;DHT22;5576;50.008;10.596;2023-03-01T09:18:31;2.80;99.90
11047;DHT22;5576;50.008;10.596;2023-03-01T09:21:02;2.80;99.90
11047;DHT22;5576;50.008;10.596;2023-03-01T09:23:35;2.80;99.90
11047;DHT22;5576;50.008;10.596;2023-03-01T09:26:02;2.90;99.90
11047;DHT22;5576;50.008;10.596;2023-03-01T09:28:28;2.90;99.90
11047;DHT22;5576;50.008;10.596;2023-03-01T09:30:58;3.00;99.90
11047;DHT22;5576;50.008;10.596;2023-03-01T09:33:24;3.00;99.90
11047;DHT22;5576;50.008;10.596;2023-03-01T09:35:55;3.00;99.90
11047;DHT22;5576;50.008;10.596;2023-03-01T09:38:20;3.10;99.90
11047;DHT22;5576;50.008;10.596;2023-03-01T09:40:46;3.10;99.90
11047;DHT22;5576;50.008;10.596;2023-03-01T09:46:07;6.60;99.90
11047;DHT22;5576;50.008;10.596;2023-03-01T09:48:42;4.60;99.90
11047;DHT22;5576;50.008;10.596;2023-03-01T09:51:14;3.50;99.90
11047;DHT22;5576;50.008;10.596;2023-03-01T09:53:43;3.70;99.90
11047;DHT22;5576;50.008;10.596;2023-03-01T09:56:19;3.70;99.90
11047;DHT22;5576;50.008;10.596;2023-03-01T09:58:52;3.70;99.90
11047;DHT22;5576;50.008;10.596;2023-03-01T10:01:28;0.50;99.90
11047;DHT22;5576;50.008;10.596;2023-03-01T10:04:04;3.80;99.90
11047;DHT22;5576;50.008;10.596;2023-03-01T10:06:35;3.80;99.90
11047;DHT22;5576;50.008;10.596;2023-03-01T10:09:05;4.50;99.90
11047;DHT22;5576;50.008;10.596;2023-03-01T10:11:38;3.90;99.90
11047;DHT22;5576;50.008;10.596;2023-03-01T10:19:06;4.10;99.90
11047;DHT22;5576;50.008;10.596;2023-03-01T10:21:40;3.50;99.90
11047;DHT22;5576;50.008;10.596;2023-03-01T10:24:16;4.20;99.90
11047;DHT22;5576;50.008;10.596;2023-03-01T10:26:56;7.10;99.90
11047;DHT22;5576;50.008;10.596;2023-03-01T10:29:30;4.40;99.90
11047;DHT22;5576;50.008;10.596;2023-03-01T10:31:57;4.50;99.90
11047;DHT22;5576;50.008;10.596;2023-03-01T10:34:33;4.50;99.90
11047;DHT22;5576;50.008;10.596;2023-03-01T10:37:09;2.70;99.90
11047;DHT22;5576;50.008;10.596;2023-03-01T10:39:36;4.90;99.90
11047;DHT22;5576;50.008;10.596;2023-03-01T10:42:04;5.00;99.90
11047;DHT22;5576;50.008;10.596;2023-03-01T10:44:44;5.10;99.90
11047;DHT22;5576;50.008;10.596;2023-03-01T10:47:27;5.10;99.90
11047;DHT22;5576;50.008;10.596;2023-03-01T10:49:56;5.20;99.90
11047;DHT22;5576;50.008;10.596;2023-03-01T10:52:26;4.80;99.90
11047;DHT22;5576;50.008;10.596;2023-03-01T10:54:56;5.50;99.90
11047;DHT22;5576;50.008;10.596;2023-03-01T10:57:36;5.60;99.90
11047;DHT22;5576;50.008;10.596;2023-03-01T11:00:16;5.70;99.90
11047;DHT22;5576;50.008;10.596;2023-03-01T11:02:49;3.30;99.90
11047;DHT22;5576;50.008;10.596;2023-03-01T11:05:24;9.30;99.90
11047;DHT22;5576;50.008;10.596;2023-03-01T11:07:53;5.80;99.90
11047;DHT22;5576;50.008;10.596;2023-03-01T11:10:24;5.80;99.90
11047;DHT22;5576;50.008;10.596;2023-03-01T11:12:52;9.20;99.90
11047;DHT22;5576;50.008;10.596;2023-03-01T11:15:27;5.90;99.90
11047;DHT22;5576;50.008;10.596;2023-03-01T11:17:55;3.50;99.90
11047;DHT22;5576;50.008;10.596;2023-03-01T11:20:32;10.30;99.90
11047;DHT22;5576;50.008;10.596;2023-03-01T11:23:03;6.00;99.90
11047;DHT22;5576;50.008;10.596;2023-03-01T11:25:35;6.20;99.90
11047;DHT22;5576;50.008;10.596;2023-03-01T11:28:04;6.40;99.90
11047;DHT22;5576;50.008;10.596;2023-03-01T11:30:51;10.70;99.90
11047;DHT22;5576;50.008;10.596;2023-03-01T11:36:15;6.50;99.90
11047;DHT22;5576;50.008;10.596;2023-03-01T11:38:41;6.50;99.90
11047;DHT22;5576;50.008;10.596;2023-03-01T11:41:20;2.60;99.90
11047;DHT22;5576;50.008;10.596;2023-03-01T11:44:11;6.70;99.90
11047;DHT22;5576;50.008;10.596;2023-03-01T11:52:41;7.10;99.90
11047;DHT22;5576;50.008;10.596;2023-03-01T11:55:30;9.20;99.90
11047;DHT22;5576;50.008;10.596;2023-03-01T12:03:25;7.30;99.90
11047;DHT22;5576;50.008;10.596;2023-03-01T12:08:48;7.40;99.90
11047;DHT22;5576;50.008;10.596;2023-03-01T12:14:30;9.10;99.90
11047;DHT22;5576;50.008;10.596;2023-03-01T12:19:49;7.60;99.90
11047;DHT22;5576;50.008;10.596;2023-03-01T12:22:29;7.70;99.90
11047;DHT22;5576;50.008;10.596;2023-03-01T12:30:39;7.80;99.90
11047;DHT22;5576;50.008;10.596;2023-03-01T12:38:49;8.10;99.90
11047;DHT22;5576;50.008;10.596;2023-03-01T12:41:46;11.50;99.90
11047;DHT22;5576;50.008;10.596;2023-03-01T12:52:55;8.50;99.90
11047;DHT22;5576;50.008;10.596;2023-03-01T12:55:39;12.70;99.90
11047;DHT22;5576;50.008;10.596;2023-03-01T13:01:36;5.00;99.90
11047;DHT22;5576;50.008;10.596;2023-03-01T13:04:15;8.50;99.90
11047;DHT22;5576;50.008;10.596;2023-03-01T13:07:18;8.50;99.90
11047;DHT22;5576;50.008;10.596;2023-03-01T13:17:51;8.80;99.90
11047;DHT22;5576;50.008;10.596;2023-03-01T13:20:20;8.90;99.90
11047;DHT22;5576;50.008;10.596;2023-03-01T13:22:47;8.80;99.90
11047;DHT22;5576;50.008;10.596;2023-03-01T13:25:17;8.80;99.90
11047;DHT22;5576;50.008;10.596;2023-03-01T13:27:44;8.90;99.90
11047;DHT22;5576;50.008;10.596;2023-03-01T13:35:50;12.20;99.90
11047;DHT22;5576;50.008;10.596;2023-03-01T13:41:03;9.90;99.90
11047;DHT22;5576;50.008;10.596;2023-03-01T13:43:38;9.20;99.90
11047;DHT22;5576;50.008;10.596;2023-03-01T13:46:23;9.30;99.90
11047;DHT22;5576;50.008;10.596;2023-03-01T13:48:52;11.00;99.90
11047;DHT22;5576;50.008;10.596;2023-03-01T13:51:25;9.30;99.90
11047;DHT22;5576;50.008;10.596;2023-03-01T13:53:52;9.30;99.90
11047;DHT22;5576;50.008;10.596;2023-03-01T14:01:27;9.30;99.90
11047;DHT22;5576;50.008;10.596;2023-03-01T14:03:53;9.40;99.90
11047;DHT22;5576;50.008;10.596;2023-03-01T14:06:25;9.50;99.90
11047;DHT22;5576;50.008;10.596;2023-03-01T14:09:03;9.50;99.90
11047;DHT22;5576;50.008;10.596;2023-03-01T14:14:36;9.60;99.90
11047;DHT22;5576;50.008;10.596;2023-03-01T14:17:00;9.40;99.90
11047;DHT22;5576;50.008;10.596;2023-03-01T14:19:29;9.40;99.90
11047;DHT22;5576;50.008;10.596;2023-03-01T14:22:18;6.80;99.90
11047;DHT22;5576;50.008;10.596;2023-03-01T14:24:49;13.80;99.90
11047;DHT22;5576;50.008;10.596;2023-03-01T14:27:15;9.40;99.90
11047;DHT22;5576;50.008;10.596;2023-03-01T14:29:41;9.40;99.90
11047;DHT22;5576;50.008;10.596;2023-03-01T14:32:10;9.30;99.90
11047;DHT22;5576;50.008;10.596;2023-03-01T14:34:43;13.40;99.90
11047;DHT22;5576;50.008;10.596;2023-03-01T14:39:58;9.00;99.90
11047;DHT22;5576;50.008;10.596;2023-03-01T14:42:28;8.80;99.90
11047;DHT22;5576;50.008;10.596;2023-03-01T14:44:56;12.10;99.90
11047;DHT22;5576;50.008;10.596;2023-03-01T14:47:32;8.80;99.90
11047;DHT22;5576;50.008;10.596;2023-03-01T14:50:08;8.90;99.90
11047;DHT22;5576;50.008;10.596;2023-03-01T14:52:37;8.90;99.90
11047;DHT22;5576;50.008;10.596;2023-03-01T14:55:07;8.80;99.90
11047;DHT22;5576;50.008;10.596;2023-03-01T14:57:43;8.80;99.90
11047;DHT22;5576;50.008;10.596;2023-03-01T15:00:18;7.70;99.90
11047;DHT22;5576;50.008;10.596;2023-03-01T15:02:47;9.00;99.90
11047;DHT22;5576;50.008;10.596;2023-03-01T15:05:14;9.10;99.90
11047;DHT22;5576;50.008;10.596;2023-03-01T15:07:42;9.00;99.90
11047;DHT22;5576;50.008;10.596;2023-03-01T15:10:23;9.10;99.90
11047;DHT22;5576;50.008;10.596;2023-03-01T15:12:50;9.00;99.90
11047;DHT22;5576;50.008;10.596;2023-03-01T15:17:53;9.10;99.90
11047;DHT22;5576;50.008;10.596;2023-03-01T15:20:23;9.00;99.90
11047;DHT22;5576;50.008;10.596;2023-03-01T15:22:52;10.90;99.90
11047;DHT22;5576;50.008;10.596;2023-03-01T15:25:20;8.90;99.90
11047;DHT22;5576;50.008;10.596;2023-03-01T15:27:47;8.80;99.90
11047;DHT22;5576;50.008;10.596;2023-03-01T15:30:18;8.70;99.90
11047;DHT22;5576;50.008;10.596;2023-03-01T15:32:45;11.50;99.90
11047;DHT22;5576;50.008;10.596;2023-03-01T15:35:35;8.50;99.90
11047;DHT22;5576;50.008;10.596;2023-03-01T15:40:51;8.60;99.90
11047;DHT22;5576;50.008;10.596;2023-03-01T15:46:17;9.50;99.90
11047;DHT22;5576;50.008;10.596;2023-03-01T15:48:46;4.40;99.90
11047;DHT22;5576;50.008;10.596;2023-03-01T15:51:15;8.70;99.90
11047;DHT22;5576;50.008;10.596;2023-03-01T15:53:49;8.60;99.90
11047;DHT22;5576;50.008;10.596;2023-03-01T15:56:15;7.70;99.90
11047;DHT22;5576;50.008;10.596;2023-03-01T15:58:41;9.50;99.90
11047;DHT22;5576;50.008;10.596;2023-03-01T16:01:12;8.80;99.90
11047;DHT22;5576;50.008;10.596;2023-03-01T16:03:38;8.90;99.90
11047;DHT22;5576;50.008;10.596;2023-03-01T16:06:04;8.80;99.90
11047;DHT22;5576;50.008;10.596;2023-03-01T16:08:30;8.80;99.90
11047;DHT22;5576;50.008;10.596;2023-03-01T16:10:55;8.50;99.90
11047;DHT22;5576;50.008;10.596;2023-03-01T16:13:21;8.50;99.90
11047;DHT22;5576;50.008;10.596;2023-03-01T16:15:47;11.00;99.90
11047;DHT22;5576;50.008;10.596;2023-03-01T16:18:13;7.80;99.90
11047;DHT22;5576;50.008;10.596;2023-03-01T16:20:39;7.70;99.90
11047;DHT22;5576;50.008;10.596;2023-03-01T16:23:07;7.60;99.90
11047;DHT22;5576;50.008;10.596;2023-03-01T16:25:34;7.50;99.90
11047;DHT22;5576;50.008;10.596;2023-03-01T16:28:00;10.10;99.90
11047;DHT22;5576;50.008;10.596;2023-03-01T16:30:30;7.30;99.90
11047;DHT22;5576;50.008;10.596;2023-03-01T16:32:56;11.30;99.90
11047;DHT22;5576;50.008;10.596;2023-03-01T16:35:22;7.10;99.90
11047;DHT22;5576;50.008;10.596;2023-03-01T16:37:49;7.80;99.90
11047;DHT22;5576;50.008;10.596;2023-03-01T16:40:19;6.90;99.90
11047;DHT22;5576;50.008;10.596;2023-03-01T16:42:47;6.60;99.90
11047;DHT22;5576;50.008;10.596;2023-03-01T16:45:13;6.50;99.90
11047;DHT22;5576;50.008;10.596;2023-03-01T16:47:39;6.60;99.90
11047;DHT22;5576;50.008;10.596;2023-03-01T16:50:05;6.50;99.90
11047;DHT22;5576;50.008;10.596;2023-03-01T16:52:31;6.50;99.90
11047;DHT22;5576;50.008;10.596;2023-03-01T16:54:56;3.30;99.90
11047;DHT22;5576;50.008;10.596;2023-03-01T16:57:22;6.30;99.90
11047;DHT22;5576;50.008;10.596;2023-03-01T16:59:52;9.30;99.90
11047;DHT22;5576;50.008;10.596;2023-03-01T17:02:19;6.20;99.90
11047;DHT22;5576;50.008;10.596;2023-03-01T17:04:50;6.20;99.90
11047;DHT22;5576;50.008;10.596;2023-03-01T17:07:16;10.50;99.90
11047;DHT22;5576;50.008;10.596;2023-03-01T17:09:42;6.10;99.90
11047;DHT22;5576;50.008;10.596;2023-03-01T17:12:08;6.00;99.90
11047;DHT22;5576;50.008;10.596;2023-03-01T17:14:34;5.90;99.90
11047;DHT22;5576;50.008;10.596;2023-03-01T17:17:00;8.30;99.90
11047;DHT22;5576;50.008;10.596;2023-03-01T17:19:26;5.70;99.90
11047;DHT22;5576;50.008;10.596;2023-03-01T17:21:53;5.60;99.90
11047;DHT22;5576;50.008;10.596;2023-03-01T17:24:18;5.60;99.90
11047;DHT22;5576;50.008;10.596;2023-03-01T17:26:44;5.30;99.90
11047;DHT22;5576;50.008;10.596;2023-03-01T17:29:10;5.30;99.90
11047;DHT22;5576;50.008;10.596;2023-03-01T17:31:37;5.10;99.90
11047;DHT22;5576;50.008;10.596;2023-03-01T17:34:03;5.20;99.90